createdAt,value
2017-04-08T00:00:46.435Z,12.20
2017-04-08T00:01:44.326Z,12.20
2017-04-08T00:02:41.815Z,12.20
2017-04-08T00:03:40.090Z,12.20
2017-04-08T00:04:37.956Z,12.20
2017-04-08T00:05:35.842Z,12.20
2017-04-08T00:06:33.809Z,12.10
2017-04-08T00:07:31.734Z,12.10
2017-04-08T00:08:29.750Z,12.10
2017-04-08T00:09:27.663Z,12.10
2017-04-08T00:10:25.545Z,12.20
2017-04-08T00:11:23.462Z,12.20
2017-04-08T00:12:21.335Z,12.20
2017-04-08T00:13:19.214Z,12.20
2017-04-08T00:14:17.092Z,12.20
2017-04-08T00:15:15.035Z,12.20
2017-04-08T00:16:12.926Z,12.20
2017-04-08T00:17:10.809Z,12.20
2017-04-08T00:18:08.725Z,12.20
2017-04-08T00:19:06.604Z,12.20
2017-04-08T00:20:04.829Z,12.20
2017-04-08T00:21:02.782Z,12.20
2017-04-08T00:22:00.667Z,12.20
2017-04-08T00:22:58.565Z,12.10
2017-04-08T00:23:56.494Z,12.10
2017-04-08T00:24:54.720Z,12.10
2017-04-08T00:25:52.601Z,12.10
2017-04-08T00:26:50.540Z,12.10
2017-04-08T00:27:48.417Z,12.10
2017-04-08T00:28:46.275Z,12.10
2017-04-08T00:29:44.137Z,12.10
2017-04-08T00:30:42.016Z,12.10
2017-04-08T00:31:40.333Z,12.10
2017-04-08T00:32:38.289Z,12.10
2017-04-08T00:33:36.211Z,12.10
2017-04-08T00:34:34.089Z,12.10
2017-04-08T00:35:31.979Z,12.10
2017-04-08T00:36:29.862Z,12.10
2017-04-08T00:37:27.714Z,12.10
2017-04-08T00:38:25.614Z,12.00
2017-04-08T00:39:23.490Z,12.10
2017-04-08T00:40:21.338Z,12.10
2017-04-08T00:41:19.223Z,12.10
2017-04-08T00:42:17.094Z,12.10
2017-04-08T00:43:14.590Z,12.10
2017-04-08T00:44:13.368Z,12.10
2017-04-08T00:45:11.249Z,12.10
2017-04-08T00:46:09.118Z,12.10
2017-04-08T00:47:06.983Z,12.10
2017-04-08T00:48:04.859Z,12.10
2017-04-08T00:49:02.367Z,12.10
2017-04-08T00:50:00.286Z,12.10
2017-04-08T00:50:58.194Z,12.00
2017-04-08T00:51:56.078Z,12.00
2017-04-08T00:52:54.439Z,12.00
2017-04-08T00:53:52.686Z,12.00
2017-04-08T00:54:50.558Z,12.10
2017-04-08T00:55:48.478Z,12.10
2017-04-08T00:56:45.969Z,12.10
2017-04-08T00:57:43.850Z,12.10
2017-04-08T00:58:42.092Z,12.10
2017-04-08T00:59:39.618Z,12.10
2017-04-08T01:00:37.538Z,12.00
2017-04-08T01:01:35.472Z,12.00
2017-04-08T01:02:33.205Z,12.00
2017-04-08T01:03:31.479Z,12.00
2017-04-08T01:04:29.403Z,12.00
2017-04-08T01:05:27.333Z,12.00
2017-04-08T01:06:24.822Z,12.00
2017-04-08T01:07:22.763Z,12.10
2017-04-08T01:08:20.322Z,12.10
2017-04-08T01:09:18.240Z,12.00
2017-04-08T01:10:16.190Z,12.00
2017-04-08T01:11:14.462Z,12.00
2017-04-08T01:12:12.770Z,12.00
2017-04-08T01:13:10.690Z,12.00
2017-04-08T01:14:08.690Z,12.00
2017-04-08T01:15:06.578Z,12.00
2017-04-08T01:16:04.461Z,12.00
2017-04-08T01:17:02.711Z,12.00
2017-04-08T01:18:00.714Z,12.00
2017-04-08T01:18:58.623Z,11.90
2017-04-08T01:19:56.090Z,11.90
2017-04-08T01:20:53.609Z,11.90
2017-04-08T01:21:51.481Z,11.90
2017-04-08T01:22:48.946Z,11.90
2017-04-08T01:23:47.174Z,12.00
2017-04-08T01:24:45.099Z,12.00
2017-04-08T01:25:42.962Z,12.00
2017-04-08T01:26:40.835Z,12.10
2017-04-08T01:27:38.710Z,12.00
2017-04-08T01:28:36.577Z,12.10
2017-04-08T01:29:34.054Z,12.10
2017-04-08T01:30:31.573Z,12.10
2017-04-08T01:31:29.826Z,12.10
2017-04-08T01:32:27.674Z,12.10
2017-04-08T01:33:25.542Z,12.10
2017-04-08T01:34:23.580Z,12.10
2017-04-08T01:35:21.485Z,12.10
2017-04-08T01:36:19.443Z,12.00
2017-04-08T01:37:17.311Z,12.00
2017-04-08T01:38:15.566Z,12.00
2017-04-08T01:39:13.810Z,12.00
2017-04-08T01:40:11.718Z,12.00
2017-04-08T01:41:09.587Z,12.00
2017-04-08T01:42:07.550Z,12.10
2017-04-08T01:43:05.440Z,12.10
2017-04-08T01:44:03.306Z,12.10
2017-04-08T01:45:01.188Z,12.10
2017-04-08T01:45:59.417Z,12.10
2017-04-08T01:46:57.307Z,12.10
2017-04-08T01:47:55.206Z,12.10
2017-04-08T01:48:53.062Z,12.10
2017-04-08T01:49:50.942Z,12.10
2017-04-08T01:50:48.961Z,12.10
2017-04-08T01:51:46.819Z,12.10
2017-04-08T01:52:44.729Z,12.10
2017-04-08T01:53:43.038Z,12.10
2017-04-08T01:54:41.278Z,12.10
2017-04-08T01:55:39.274Z,12.10
2017-04-08T01:56:37.163Z,12.10
2017-04-08T01:57:35.014Z,12.00
2017-04-08T01:58:32.491Z,12.10
2017-04-08T01:59:30.007Z,12.00
2017-04-08T02:00:27.882Z,12.00
2017-04-08T02:01:25.822Z,12.00
2017-04-08T02:02:23.748Z,11.90
2017-04-08T02:03:21.982Z,11.90
2017-04-08T02:04:19.891Z,11.90
2017-04-08T02:05:17.855Z,11.90
2017-04-08T02:06:15.763Z,11.90
2017-04-08T02:07:13.691Z,11.90
2017-04-08T02:08:11.566Z,11.90
2017-04-08T02:09:09.460Z,11.90
2017-04-08T02:10:07.346Z,12.00
2017-04-08T02:11:05.270Z,11.90
2017-04-08T02:12:03.188Z,11.90
2017-04-08T02:13:01.050Z,11.90
2017-04-08T02:13:58.578Z,11.90
2017-04-08T02:14:56.055Z,11.90
2017-04-08T02:15:53.910Z,12.00
2017-04-08T02:16:51.415Z,12.00
2017-04-08T02:17:49.662Z,11.90
2017-04-08T02:18:47.729Z,11.90
2017-04-08T02:19:45.607Z,11.90
2017-04-08T02:20:43.886Z,11.90
2017-04-08T02:21:41.750Z,11.90
2017-04-08T02:22:39.662Z,11.90
2017-04-08T02:23:37.743Z,11.90
2017-04-08T02:24:36.008Z,11.90
2017-04-08T02:25:33.490Z,11.90
2017-04-08T02:26:31.354Z,11.80
2017-04-08T02:27:29.211Z,11.90
2017-04-08T02:28:27.169Z,11.90
2017-04-08T02:29:24.626Z,11.90
2017-04-08T02:30:22.485Z,11.60
2017-04-08T02:31:20.566Z,11.50
2017-04-08T02:32:18.423Z,11.40
2017-04-08T02:33:16.293Z,11.30
2017-04-08T02:34:13.808Z,11.20
2017-04-08T02:35:11.682Z,11.10
2017-04-08T02:36:09.601Z,11.00
2017-04-08T02:37:07.478Z,11.00
2017-04-08T02:38:05.343Z,11.00
2017-04-08T02:39:03.310Z,10.90
2017-04-08T02:40:01.205Z,10.90
2017-04-08T02:40:59.651Z,11.00
2017-04-08T02:41:57.541Z,11.00
2017-04-08T02:42:55.773Z,11.10
2017-04-08T02:43:53.642Z,11.20
2017-04-08T02:44:51.502Z,11.20
2017-04-08T02:45:49.429Z,11.30
2017-04-08T02:46:47.308Z,11.30
2017-04-08T02:47:45.554Z,11.30
2017-04-08T02:48:43.425Z,11.30
2017-04-08T02:49:41.287Z,11.30
2017-04-08T02:50:39.155Z,11.30
2017-04-08T02:51:37.084Z,11.30
2017-04-08T02:52:34.937Z,11.30
2017-04-08T02:53:32.805Z,11.30
2017-04-08T02:54:30.663Z,11.30
2017-04-08T02:55:28.534Z,11.30
2017-04-08T02:56:26.426Z,11.30
2017-04-08T02:57:24.349Z,11.30
2017-04-08T02:58:22.223Z,11.30
2017-04-08T02:59:20.094Z,11.30
2017-04-08T03:00:18.363Z,11.30
2017-04-08T03:01:15.916Z,11.30
2017-04-08T03:02:13.955Z,11.20
2017-04-08T03:03:11.848Z,11.20
2017-04-08T03:04:09.734Z,11.20
2017-04-08T03:05:07.586Z,11.20
2017-04-08T03:06:05.455Z,11.10
2017-04-08T03:07:03.382Z,11.10
2017-04-08T03:08:01.242Z,11.00
2017-04-08T03:08:59.274Z,11.00
2017-04-08T03:09:57.505Z,10.90
2017-04-08T03:10:55.378Z,10.90
2017-04-08T03:11:53.250Z,10.80
2017-04-08T03:12:50.726Z,10.80
2017-04-08T03:13:48.625Z,10.80
2017-04-08T03:14:46.558Z,10.80
2017-04-08T03:15:44.531Z,10.70
2017-04-08T03:16:42.394Z,10.70
2017-04-08T03:17:40.286Z,10.70
2017-04-08T03:18:38.164Z,10.70
2017-04-08T03:19:35.630Z,10.70
2017-04-08T03:20:33.539Z,10.70
2017-04-08T03:21:31.391Z,10.80
2017-04-08T03:22:28.851Z,10.80
2017-04-08T03:23:26.722Z,10.90
2017-04-08T03:24:24.582Z,10.90
2017-04-08T03:25:22.450Z,10.90
2017-04-08T03:26:20.354Z,11.00
2017-04-08T03:27:18.254Z,11.00
2017-04-08T03:28:16.144Z,11.10
2017-04-08T03:29:14.018Z,11.20
2017-04-08T03:30:11.889Z,11.20
2017-04-08T03:31:09.750Z,11.20
2017-04-08T03:32:07.650Z,11.20
2017-04-08T03:33:05.523Z,11.10
2017-04-08T03:34:03.762Z,11.00
2017-04-08T03:35:01.633Z,11.00
2017-04-08T03:35:59.513Z,11.00
2017-04-08T03:36:57.763Z,11.10
2017-04-08T03:37:55.257Z,11.10
2017-04-08T03:38:53.129Z,11.20
2017-04-08T03:39:51.086Z,11.20
2017-04-08T03:40:48.947Z,11.20
2017-04-08T03:41:46.814Z,11.30
2017-04-08T03:42:44.783Z,11.30
2017-04-08T03:43:42.698Z,11.30
2017-04-08T03:44:40.182Z,11.30
2017-04-08T03:45:38.053Z,11.30
2017-04-08T03:46:35.918Z,11.40
2017-04-08T03:47:33.882Z,11.40
2017-04-08T03:48:31.333Z,11.40
2017-04-08T03:49:28.834Z,11.50
2017-04-08T03:50:26.706Z,11.50
2017-04-08T03:51:24.942Z,11.50
2017-04-08T03:52:22.874Z,11.50
2017-04-08T03:53:20.751Z,11.50
2017-04-08T03:54:18.618Z,11.50
2017-04-08T03:55:16.526Z,11.50
2017-04-08T03:56:14.746Z,11.50
2017-04-08T03:57:12.795Z,11.50
2017-04-08T03:58:10.268Z,11.50
2017-04-08T03:59:08.314Z,11.40
2017-04-08T04:00:06.298Z,11.40
2017-04-08T04:01:04.248Z,11.40
2017-04-08T04:02:02.115Z,11.30
2017-04-08T04:02:59.970Z,11.30
2017-04-08T04:03:57.830Z,11.30
2017-04-08T04:04:55.726Z,11.30
2017-04-08T04:05:53.585Z,11.40
2017-04-08T04:06:51.518Z,11.40
2017-04-08T04:07:49.387Z,11.40
2017-04-08T04:08:47.271Z,11.40
2017-04-08T04:09:45.138Z,11.40
2017-04-08T04:10:42.998Z,11.40
2017-04-08T04:11:40.609Z,11.40
2017-04-08T04:12:38.522Z,11.40
2017-04-08T04:13:36.447Z,11.40
2017-04-08T04:14:33.922Z,11.50
2017-04-08T04:15:31.850Z,11.50
2017-04-08T04:16:29.347Z,11.50
2017-04-08T04:17:27.237Z,11.50
2017-04-08T04:18:25.164Z,11.60
2017-04-08T04:19:23.058Z,11.60
2017-04-08T04:20:20.937Z,11.60
2017-04-08T04:21:18.426Z,11.60
2017-04-08T04:22:16.316Z,11.60
2017-04-08T04:23:14.199Z,11.60
2017-04-08T04:24:12.488Z,11.60
2017-04-08T04:25:10.361Z,11.50
2017-04-08T04:26:08.258Z,11.60
2017-04-08T04:27:06.159Z,11.60
2017-04-08T04:28:04.056Z,11.50
2017-04-08T04:29:01.906Z,11.50
2017-04-08T04:30:00.178Z,11.50
2017-04-08T04:30:58.399Z,11.50
2017-04-08T04:31:56.269Z,11.50
2017-04-08T04:32:54.126Z,11.40
2017-04-08T04:33:51.968Z,11.40
2017-04-08T04:34:49.442Z,11.40
2017-04-08T04:35:47.422Z,11.40
2017-04-08T04:36:45.301Z,11.30
2017-04-08T04:37:43.163Z,11.20
2017-04-08T04:38:41.089Z,11.10
2017-04-08T04:39:38.950Z,11.00
2017-04-08T04:40:36.831Z,11.00
2017-04-08T04:41:34.354Z,11.00
2017-04-08T04:42:32.234Z,11.00
2017-04-08T04:43:30.106Z,11.00
2017-04-08T04:44:28.015Z,11.00
2017-04-08T04:45:25.898Z,11.00
2017-04-08T04:46:23.359Z,11.00
2017-04-08T04:47:21.249Z,10.80
2017-04-08T04:48:19.118Z,10.70
2017-04-08T04:49:17.338Z,10.70
2017-04-08T04:50:15.194Z,10.60
2017-04-08T04:51:13.058Z,10.50
2017-04-08T04:52:10.934Z,10.40
2017-04-08T04:53:08.827Z,10.40
2017-04-08T04:54:06.682Z,10.40
2017-04-08T04:55:04.545Z,10.40
2017-04-08T04:56:02.405Z,10.40
2017-04-08T04:56:59.867Z,10.40
2017-04-08T04:57:57.826Z,10.60
2017-04-08T04:58:55.726Z,10.60
2017-04-08T04:59:53.193Z,10.60
2017-04-08T05:00:51.440Z,10.60
2017-04-08T05:01:49.711Z,10.70
2017-04-08T05:02:47.565Z,10.70
2017-04-08T05:03:45.434Z,10.70
2017-04-08T05:04:43.718Z,10.70
2017-04-08T05:05:41.598Z,10.70
2017-04-08T05:06:39.464Z,10.60
2017-04-08T05:07:37.323Z,10.60
2017-04-08T05:08:35.207Z,10.60
2017-04-08T05:09:33.107Z,10.50
2017-04-08T05:10:30.999Z,10.50
2017-04-08T05:11:28.866Z,10.60
2017-04-08T05:12:26.746Z,10.70
2017-04-08T05:13:24.970Z,10.70
2017-04-08T05:14:22.824Z,10.80
2017-04-08T05:15:20.702Z,10.80
2017-04-08T05:16:18.250Z,10.80
2017-04-08T05:17:16.235Z,10.90
2017-04-08T05:18:14.518Z,11.00
2017-04-08T05:19:12.010Z,11.00
2017-04-08T05:20:09.867Z,11.10
2017-04-08T05:21:07.735Z,11.10
2017-04-08T05:22:05.635Z,11.20
2017-04-08T05:23:03.517Z,11.20
2017-04-08T05:24:01.374Z,11.20
2017-04-08T05:24:59.234Z,11.20
2017-04-08T05:25:57.102Z,11.20
2017-04-08T05:26:54.987Z,11.20
2017-04-08T05:27:52.907Z,11.20
2017-04-08T05:28:50.762Z,11.20
2017-04-08T05:29:48.230Z,11.20
2017-04-08T05:30:46.086Z,11.20
2017-04-08T05:31:43.957Z,11.10
2017-04-08T05:32:41.822Z,11.20
2017-04-08T05:33:39.332Z,11.20
2017-04-08T05:34:37.197Z,11.20
2017-04-08T05:35:35.154Z,11.20
2017-04-08T05:36:33.036Z,11.20
2017-04-08T05:37:30.906Z,11.30
2017-04-08T05:38:28.778Z,11.30
2017-04-08T05:39:27.051Z,11.30
2017-04-08T05:40:24.925Z,11.40
2017-04-08T05:41:22.796Z,11.40
2017-04-08T05:42:20.402Z,11.40
2017-04-08T05:43:18.258Z,11.50
2017-04-08T05:44:16.118Z,11.50
2017-04-08T05:45:14.010Z,11.50
2017-04-08T05:46:11.904Z,11.50
2017-04-08T05:47:09.754Z,11.50
2017-04-08T05:48:07.665Z,11.50
2017-04-08T05:49:05.559Z,11.60
2017-04-08T05:50:03.806Z,11.60
2017-04-08T05:51:01.704Z,11.60
2017-04-08T05:51:59.570Z,11.60
2017-04-08T05:52:57.051Z,11.60
2017-04-08T05:53:54.899Z,11.70
2017-04-08T05:54:52.807Z,11.70
2017-04-08T05:55:50.688Z,11.70
2017-04-08T05:56:48.209Z,11.70
2017-04-08T05:57:46.085Z,11.70
2017-04-08T05:58:43.975Z,11.70
2017-04-08T05:59:41.833Z,11.70
2017-04-08T06:00:39.702Z,11.60
2017-04-08T06:01:37.562Z,11.50
2017-04-08T06:02:35.494Z,11.50
2017-04-08T06:03:33.360Z,11.50
2017-04-08T06:04:31.246Z,11.40
2017-04-08T06:05:29.098Z,11.40
2017-04-08T06:06:26.993Z,11.40
2017-04-08T06:07:24.850Z,11.40
2017-04-08T06:08:22.331Z,11.50
2017-04-08T06:09:20.203Z,11.50
2017-04-08T06:10:18.072Z,11.50
2017-04-08T06:11:16.395Z,11.60
2017-04-08T06:12:14.258Z,11.60
2017-04-08T06:13:12.154Z,11.60
2017-04-08T06:14:09.913Z,11.60
2017-04-08T06:15:07.773Z,11.70
2017-04-08T06:16:05.642Z,11.70
2017-04-08T06:17:03.566Z,11.80
2017-04-08T06:18:01.455Z,11.80
2017-04-08T06:18:59.698Z,11.90
2017-04-08T06:19:57.630Z,11.90
2017-04-08T06:20:55.514Z,11.90
2017-04-08T06:21:53.414Z,11.90
2017-04-08T06:22:51.270Z,11.80
2017-04-08T06:23:48.767Z,11.80
2017-04-08T06:24:46.617Z,11.60
2017-04-08T06:25:44.586Z,11.60
2017-04-08T06:26:42.478Z,11.60
2017-04-08T06:27:40.361Z,11.60
2017-04-08T06:28:38.246Z,11.60
2017-04-08T06:29:36.471Z,11.60
2017-04-08T06:30:34.345Z,11.50
2017-04-08T06:31:32.286Z,11.50
2017-04-08T06:32:30.156Z,11.50
2017-04-08T06:33:28.033Z,11.50
2017-04-08T06:34:25.922Z,11.50
2017-04-08T06:35:23.850Z,11.50
2017-04-08T06:36:21.727Z,11.30
2017-04-08T06:37:19.626Z,11.30
2017-04-08T06:38:17.530Z,11.30
2017-04-08T06:39:15.422Z,11.30
2017-04-08T06:40:12.879Z,11.30
2017-04-08T06:41:10.730Z,11.30
2017-04-08T06:42:08.590Z,11.30
2017-04-08T06:43:06.492Z,11.40
2017-04-08T06:44:04.716Z,11.50
2017-04-08T06:45:02.591Z,11.60
2017-04-08T06:46:00.463Z,11.60
2017-04-08T06:46:58.346Z,11.60
2017-04-08T06:47:56.218Z,11.70
2017-04-08T06:48:54.137Z,11.80
2017-04-08T06:49:52.390Z,11.80
2017-04-08T06:50:50.634Z,11.90
2017-04-08T06:51:48.511Z,11.90
2017-04-08T06:52:46.370Z,11.90
2017-04-08T06:53:44.284Z,12.00
2017-04-08T06:54:42.207Z,12.00
2017-04-08T06:55:39.670Z,12.00
2017-04-08T06:56:37.161Z,12.00
2017-04-08T06:57:35.106Z,12.10
2017-04-08T06:58:33.023Z,12.10
2017-04-08T06:59:31.257Z,12.10
2017-04-08T07:00:29.181Z,12.00
2017-04-08T07:01:27.137Z,11.90
2017-04-08T07:02:26.855Z,11.80
2017-04-08T07:03:24.915Z,11.80
2017-04-08T07:04:22.801Z,11.80
2017-04-08T07:05:21.026Z,11.80
2017-04-08T07:06:18.946Z,11.90
2017-04-08T07:07:16.407Z,11.90
2017-04-08T07:08:14.671Z,12.00
2017-04-08T07:09:12.274Z,12.00
2017-04-08T07:10:10.170Z,12.10
2017-04-08T07:11:08.525Z,12.10
2017-04-08T07:12:06.439Z,12.10
2017-04-08T07:13:04.354Z,12.20
2017-04-08T07:14:02.235Z,12.20
2017-04-08T07:15:00.118Z,12.20
2017-04-08T07:15:58.088Z,12.20
2017-04-08T07:16:55.969Z,12.20
2017-04-08T07:17:53.867Z,12.30
2017-04-08T07:18:51.398Z,12.20
2017-04-08T07:19:49.923Z,12.40
2017-04-08T07:20:47.859Z,12.40
2017-04-08T07:21:45.381Z,12.50
2017-04-08T07:22:43.618Z,12.50
2017-04-08T07:23:41.514Z,12.50
2017-04-08T07:24:39.395Z,12.50
2017-04-08T07:25:37.267Z,12.50
2017-04-08T07:26:35.117Z,12.50
2017-04-08T07:27:33.019Z,12.50
2017-04-08T07:28:30.903Z,12.50
2017-04-08T07:29:28.838Z,12.40
2017-04-08T07:30:26.703Z,12.40
2017-04-08T07:31:24.957Z,12.40
2017-04-08T07:32:22.826Z,12.40
2017-04-08T07:33:20.701Z,12.50
2017-04-08T07:34:18.206Z,12.50
2017-04-08T07:35:16.130Z,12.40
2017-04-08T07:36:14.064Z,12.50
2017-04-08T07:37:11.544Z,12.50
2017-04-08T07:38:09.475Z,12.60
2017-04-08T07:39:07.443Z,12.60
2017-04-08T07:40:07.838Z,12.70
2017-04-08T07:41:05.779Z,12.70
2017-04-08T07:42:04.047Z,12.70
2017-04-08T07:43:01.586Z,12.70
2017-04-08T07:43:59.455Z,12.80
2017-04-08T07:44:57.310Z,12.80
2017-04-08T07:45:55.274Z,12.80
2017-04-08T07:46:53.174Z,12.80
2017-04-08T07:47:51.078Z,12.60
2017-04-08T07:48:48.961Z,12.40
2017-04-08T07:49:46.876Z,12.20
2017-04-08T07:50:44.878Z,12.10
2017-04-08T07:51:43.125Z,12.10
2017-04-08T07:52:41.111Z,12.20
2017-04-08T07:53:39.002Z,12.30
2017-04-08T07:54:37.170Z,12.40
2017-04-08T07:55:35.063Z,12.50
2017-04-08T07:56:33.338Z,12.60
2017-04-08T07:57:31.595Z,12.70
2017-04-08T07:58:30.032Z,12.80
2017-04-08T07:59:27.927Z,12.90
2017-04-08T08:00:26.146Z,13.00
2017-04-08T08:01:24.178Z,13.10
2017-04-08T08:02:22.091Z,13.10
2017-04-08T08:03:19.654Z,13.10
2017-04-08T08:04:17.994Z,13.10
2017-04-08T08:05:15.995Z,13.20
2017-04-08T08:06:14.460Z,13.30
2017-04-08T08:07:12.734Z,13.40
2017-04-08T08:08:10.597Z,13.60
2017-04-08T08:09:09.234Z,13.60
2017-04-08T08:10:07.154Z,13.70
2017-04-08T08:11:05.235Z,13.70
2017-04-08T08:12:03.127Z,13.80
2017-04-08T08:13:00.637Z,13.80
2017-04-08T08:13:58.508Z,13.80
2017-04-08T08:14:56.452Z,13.90
2017-04-08T08:15:54.450Z,14.00
2017-04-08T08:16:51.915Z,14.00
2017-04-08T08:17:49.798Z,14.10
2017-04-08T08:18:47.661Z,14.20
2017-04-08T08:19:45.531Z,14.20
2017-04-08T08:20:43.460Z,14.30
2017-04-08T08:21:41.022Z,14.30
2017-04-08T08:22:38.940Z,14.40
2017-04-08T08:23:36.823Z,14.40
2017-04-08T08:24:34.691Z,14.40
2017-04-08T08:25:32.553Z,14.40
2017-04-08T08:26:30.041Z,14.40
2017-04-08T08:27:27.627Z,14.40
2017-04-08T08:28:25.503Z,14.50
2017-04-08T08:29:23.394Z,14.50
2017-04-08T08:30:21.674Z,14.50
2017-04-08T08:31:19.833Z,14.60
2017-04-08T08:32:17.710Z,14.60
2017-04-08T08:33:15.317Z,14.60
2017-04-08T08:34:13.214Z,14.60
2017-04-08T08:35:11.079Z,14.60
2017-04-08T08:36:08.566Z,14.60
2017-04-08T08:37:06.430Z,14.60
2017-04-08T08:38:03.946Z,14.70
2017-04-08T08:39:01.874Z,14.70
2017-04-08T08:39:59.796Z,14.80
2017-04-08T08:40:57.659Z,14.90
2017-04-08T08:41:55.527Z,14.90
2017-04-08T08:42:53.842Z,15.00
2017-04-08T08:43:51.715Z,15.00
2017-04-08T08:44:49.642Z,15.10
2017-04-08T08:45:47.618Z,15.10
2017-04-08T08:46:45.498Z,15.20
2017-04-08T08:47:43.355Z,15.20
2017-04-08T08:48:41.227Z,15.10
2017-04-08T08:49:39.085Z,15.10
2017-04-08T08:50:36.978Z,15.10
2017-04-08T08:51:34.446Z,15.10
2017-04-08T08:52:32.323Z,15.10
2017-04-08T08:53:30.208Z,15.20
2017-04-08T08:54:28.070Z,15.20
2017-04-08T08:55:25.950Z,15.20
2017-04-08T08:56:23.850Z,15.30
2017-04-08T08:57:21.734Z,15.40
2017-04-08T08:58:19.206Z,15.30
2017-04-08T08:59:17.097Z,15.50
2017-04-08T09:00:15.006Z,15.60
2017-04-08T09:01:12.966Z,15.70
2017-04-08T09:02:10.876Z,15.70
2017-04-08T09:03:08.430Z,15.70
2017-04-08T09:04:05.920Z,15.80
2017-04-08T09:05:04.147Z,15.90
2017-04-08T09:06:02.010Z,16.00
2017-04-08T09:06:59.914Z,16.00
2017-04-08T09:07:57.838Z,16.10
2017-04-08T09:08:55.695Z,16.20
2017-04-08T09:09:53.591Z,16.30
2017-04-08T09:10:51.838Z,16.30
2017-04-08T09:11:49.706Z,16.40
2017-04-08T09:12:47.591Z,16.40
2017-04-08T09:13:45.120Z,16.40
2017-04-08T09:14:43.383Z,16.50
2017-04-08T09:15:41.314Z,16.50
2017-04-08T09:16:39.292Z,16.50
2017-04-08T09:17:36.783Z,16.50
2017-04-08T09:18:34.677Z,16.60
2017-04-08T09:19:32.567Z,16.70
2017-04-08T09:20:30.843Z,16.70
2017-04-08T09:21:29.105Z,16.70
2017-04-08T09:22:27.328Z,16.80
2017-04-08T09:23:25.181Z,16.80
2017-04-08T09:24:23.351Z,16.90
2017-04-08T09:25:21.208Z,16.90
2017-04-08T09:26:19.062Z,17.00
2017-04-08T09:27:16.986Z,17.10
2017-04-08T09:28:14.884Z,17.20
2017-04-08T09:29:12.734Z,17.20
2017-04-08T09:30:10.706Z,17.30
2017-04-08T09:31:08.573Z,17.40
2017-04-08T09:32:06.468Z,17.50
2017-04-08T09:33:04.423Z,17.50
2017-04-08T09:34:02.343Z,17.60
2017-04-08T09:35:00.302Z,17.60
2017-04-08T09:35:58.170Z,17.60
2017-04-08T09:36:55.643Z,17.60
2017-04-08T09:37:53.514Z,17.60
2017-04-08T09:38:51.403Z,17.70
2017-04-08T09:39:49.272Z,17.70
2017-04-08T09:40:46.774Z,17.70
2017-04-08T09:41:44.634Z,17.60
2017-04-08T09:42:42.500Z,17.60
2017-04-08T09:43:40.407Z,17.50
2017-04-08T09:44:38.315Z,17.60
2017-04-08T09:45:36.206Z,17.60
2017-04-08T09:46:34.502Z,17.70
2017-04-08T09:47:33.267Z,17.70
2017-04-08T09:48:31.430Z,17.80
2017-04-08T09:49:29.383Z,17.80
2017-04-08T09:50:27.327Z,17.80
2017-04-08T09:51:25.205Z,17.80
2017-04-08T09:52:24.006Z,17.90
2017-04-08T09:53:21.871Z,18.00
2017-04-08T09:54:19.723Z,18.00
2017-04-08T09:55:17.578Z,18.00
2017-04-08T09:56:15.479Z,18.00
2017-04-08T09:57:13.346Z,18.00
2017-04-08T09:58:10.807Z,18.00
2017-04-08T09:59:08.286Z,18.00
2017-04-08T10:00:06.289Z,18.10
2017-04-08T10:01:03.846Z,18.10
2017-04-08T10:02:01.371Z,18.10
2017-04-08T10:02:59.256Z,18.10
2017-04-08T10:03:57.122Z,18.20
2017-04-08T10:04:55.034Z,18.30
2017-04-08T10:05:52.901Z,18.30
2017-04-08T10:06:51.142Z,18.30
2017-04-08T10:07:49.110Z,18.30
2017-04-08T10:08:46.967Z,18.30
2017-04-08T10:09:44.832Z,18.30
2017-04-08T10:10:42.702Z,18.40
2017-04-08T10:11:40.613Z,18.50
2017-04-08T10:12:38.478Z,18.50
2017-04-08T10:13:36.442Z,18.50
2017-04-08T10:14:34.290Z,18.50
2017-04-08T10:15:32.159Z,18.50
2017-04-08T10:16:30.022Z,18.50
2017-04-08T10:17:27.875Z,18.50
2017-04-08T10:18:25.875Z,18.60
2017-04-08T10:19:24.277Z,18.60
2017-04-08T10:20:22.174Z,18.70
2017-04-08T10:21:20.027Z,18.80
2017-04-08T10:22:18.310Z,18.60
2017-04-08T10:23:16.175Z,18.60
2017-04-08T10:24:14.419Z,18.50
2017-04-08T10:25:12.370Z,18.50
2017-04-08T10:26:10.261Z,18.50
2017-04-08T10:27:08.502Z,18.30
2017-04-08T10:28:06.385Z,18.10
2017-04-08T10:29:04.257Z,18.00
2017-04-08T10:30:02.146Z,18.10
2017-04-08T10:31:00.190Z,18.00
2017-04-08T10:31:58.090Z,18.00
2017-04-08T10:32:56.077Z,17.90
2017-04-08T10:33:53.998Z,17.90
2017-04-08T10:34:51.919Z,17.80
2017-04-08T10:35:49.814Z,17.80
2017-04-08T10:36:47.756Z,17.80
2017-04-08T10:37:45.661Z,17.80
2017-04-08T10:38:43.539Z,17.90
2017-04-08T10:39:41.648Z,17.90
2017-04-08T10:40:39.595Z,17.90
2017-04-08T10:41:37.119Z,17.90
2017-04-08T10:42:35.186Z,17.90
2017-04-08T10:43:32.784Z,17.90
2017-04-08T10:44:31.040Z,17.90
2017-04-08T10:45:28.950Z,17.80
2017-04-08T10:46:26.854Z,17.70
2017-04-08T10:47:24.759Z,17.60
2017-04-08T10:48:23.075Z,17.60
2017-04-08T10:49:21.054Z,17.50
2017-04-08T10:50:18.977Z,17.40
2017-04-08T10:51:17.015Z,17.50
2017-04-08T10:52:15.039Z,17.50
2017-04-08T10:53:12.940Z,17.50
2017-04-08T10:54:10.999Z,17.60
2017-04-08T10:55:08.934Z,17.70
2017-04-08T10:56:06.474Z,17.60
2017-04-08T10:57:04.382Z,17.80
2017-04-08T10:58:02.286Z,17.80
2017-04-08T10:59:00.179Z,17.90
2017-04-08T10:59:57.719Z,17.90
2017-04-08T11:00:56.132Z,18.00
2017-04-08T11:01:54.066Z,17.80
2017-04-08T11:02:51.949Z,17.80
2017-04-08T11:03:49.847Z,17.80
2017-04-08T11:04:47.730Z,17.70
2017-04-08T11:05:45.307Z,17.80
2017-04-08T11:06:42.834Z,17.70
2017-04-08T11:07:40.734Z,17.90
2017-04-08T11:08:38.614Z,17.90
2017-04-08T11:09:36.536Z,17.90
2017-04-08T11:10:34.458Z,18.00
2017-04-08T11:11:32.428Z,18.10
2017-04-08T11:12:30.365Z,18.10
2017-04-08T11:13:28.666Z,18.10
2017-04-08T11:14:26.588Z,18.00
2017-04-08T11:15:24.481Z,17.90
2017-04-08T11:16:22.420Z,17.80
2017-04-08T11:17:20.368Z,17.80
2017-04-08T11:18:18.687Z,17.80
2017-04-08T11:19:16.622Z,17.80
2017-04-08T11:20:14.524Z,17.80
2017-04-08T11:21:12.426Z,17.80
2017-04-08T11:22:10.311Z,17.80
2017-04-08T11:23:08.235Z,17.80
2017-04-08T11:24:06.137Z,17.80
2017-04-08T11:25:04.046Z,17.90
2017-04-08T11:26:02.323Z,17.90
2017-04-08T11:27:00.234Z,17.90
2017-04-08T11:27:58.114Z,17.90
2017-04-08T11:28:56.069Z,17.90
2017-04-08T11:29:53.966Z,18.00
2017-04-08T11:30:51.926Z,18.00
2017-04-08T11:31:49.823Z,18.10
2017-04-08T11:32:47.715Z,18.10
2017-04-08T11:33:45.663Z,17.90
2017-04-08T11:34:43.253Z,17.90
2017-04-08T11:35:41.159Z,17.80
2017-04-08T11:36:39.014Z,17.70
2017-04-08T11:37:36.939Z,17.70
2017-04-08T11:38:34.820Z,17.70
2017-04-08T11:39:32.779Z,17.60
2017-04-08T11:40:30.723Z,17.70
2017-04-08T11:41:28.727Z,17.70
2017-04-08T11:42:26.627Z,17.70
2017-04-08T11:43:24.143Z,17.70
2017-04-08T11:44:22.033Z,17.80
2017-04-08T11:45:20.301Z,17.90
2017-04-08T11:46:18.207Z,17.90
2017-04-08T11:47:16.080Z,17.90
2017-04-08T11:48:14.001Z,17.80
2017-04-08T11:49:11.901Z,17.80
2017-04-08T11:50:09.790Z,17.70
2017-04-08T11:51:07.503Z,17.70
2017-04-08T11:52:05.475Z,17.80
2017-04-08T11:53:03.374Z,17.80
2017-04-08T11:54:01.639Z,17.90
2017-04-08T11:54:59.952Z,17.90
2017-04-08T11:55:57.829Z,17.90
2017-04-08T11:56:55.693Z,17.90
2017-04-08T11:57:53.630Z,18.00
2017-04-08T11:58:51.493Z,18.10
2017-04-08T11:59:49.369Z,18.10
2017-04-08T12:00:47.236Z,18.10
2017-04-08T12:01:44.730Z,18.10
2017-04-08T12:02:42.670Z,18.20
2017-04-08T12:03:40.228Z,18.30
2017-04-08T12:04:38.135Z,18.40
2017-04-08T12:05:35.859Z,18.40
2017-04-08T12:06:33.803Z,18.60
2017-04-08T12:07:31.721Z,18.60
2017-04-08T12:08:29.271Z,18.60
2017-04-08T12:09:27.256Z,18.80
2017-04-08T12:10:25.175Z,18.80
2017-04-08T12:12:27.666Z,18.90
2017-04-08T12:13:25.913Z,18.90
2017-04-08T12:14:24.223Z,18.90
2017-04-08T12:15:22.146Z,18.90
2017-04-08T12:16:20.047Z,18.90
2017-04-08T12:17:17.950Z,18.90
2017-04-08T12:18:16.214Z,19.00
2017-04-08T12:19:14.219Z,19.10
2017-04-08T12:20:11.710Z,19.10
2017-04-08T12:21:09.402Z,19.20
2017-04-08T12:22:07.001Z,19.20
2017-04-08T12:23:04.933Z,19.20
2017-04-08T12:24:02.858Z,19.20
2017-04-08T12:25:00.742Z,19.20
2017-04-08T12:25:58.305Z,19.20
2017-04-08T12:26:56.258Z,19.20